Time;durP1;ratioP1;P1;durP2;ratioP2;P2;SDS_P1;SDS_P2;PMS_P1;PMS_P2;Temp;Humidity;BMP_temperature;BMP_pressure;BME280_temperature;BME280_humidity;BME280_pressure;Samples;Min_cycle;Max_cycle;Signal;HPM_P1;HPM_P2
2022/05/21 00:00:45;;;;;;;18.55;11.13;;;9.70;99.90;;;;;;5031090;28;20085;-59
2022/05/21 00:03:11;;;;;;;18.05;10.80;;;9.70;99.90;;;;;;5029587;28;20488;-59
2022/05/21 00:05:38;;;;;;;15.90;10.57;;;9.70;99.90;;;;;;5030736;28;20092;-59
2022/05/21 00:08:08;;;;;;;18.55;11.95;;;9.70;99.90;;;;;;5029784;28;20065;-59
2022/05/21 00:10:35;;;;;;;16.20;10.27;;;9.60;99.90;;;;;;5030933;28;20613;-59
2022/05/21 00:13:01;;;;;;;21.27;12.05;;;9.70;99.90;;;;;;5029231;28;20049;-59
2022/05/21 00:15:31;;;;;;;20.67;10.93;;;9.70;99.90;;;;;;5029384;28;20467;-59
2022/05/21 00:17:57;;;;;;;16.58;10.55;;;9.70;99.90;;;;;;5030460;28;20053;-59
2022/05/21 00:23:15;;;;;;;19.95;10.40;;;9.70;99.90;;;;;;5030420;28;20053;-59
2022/05/21 00:25:43;;;;;;;18.00;10.27;;;9.70;99.90;;;;;;5029115;28;20483;-59
2022/05/21 00:28:09;;;;;;;16.17;10.57;;;9.90;99.90;;;;;;5029267;28;20049;-59
2022/05/21 00:30:35;;;;;;;18.80;11.73;;;9.80;99.90;;;;;;5030583;28;20052;-60
2022/05/21 00:33:01;;;;;;;17.02;9.57;;;9.80;99.90;;;;;;5045716;28;20037;-60
2022/05/21 00:35:28;;;;;;;20.08;10.60;;;9.80;99.90;;;;;;5028948;28;20090;-59
2022/05/21 00:37:54;;;;;;;20.00;11.23;;;9.70;99.90;;;;;;5030245;28;20045;-59
2022/05/21 00:40:21;;;;;;;26.98;12.75;;;9.80;99.90;;;;;;5062033;28;20045;-60
2022/05/21 00:42:47;;;;;;;19.88;12.65;;;9.70;99.90;;;;;;5028506;28;20037;-59
2022/05/21 00:45:14;;;;;;;19.27;11.88;;;9.70;99.90;;;;;;5028989;28;20393;-59
2022/05/21 00:47:40;;;;;;;19.38;11.98;;;9.80;99.90;;;;;;5028778;28;20065;-59
2022/05/21 00:50:08;;;;;;;18.77;12.32;;;9.80;99.90;;;;;;5028601;28;20060;-60
2022/05/21 00:52:38;;;;;;;21.30;12.48;;;9.80;99.90;;;;;;5029892;28;20063;-60
2022/05/21 00:55:13;;;;;;;24.98;14.65;;;9.90;99.90;;;;;;5028495;28;20041;-60
2022/05/21 00:57:48;;;;;;;27.05;14.38;;;9.90;99.90;;;;;;5028430;28;20069;-59
2022/05/21 01:00:19;;;;;;;25.77;14.75;;;9.90;99.90;;;;;;5028184;28;20050;-59
2022/05/21 01:02:53;;;;;;;23.25;15.13;;;9.90;99.90;;;;;;5029959;28;20053;-60
2022/05/21 01:05:22;;;;;;;24.17;15.45;;;9.90;99.90;;;;;;5027946;28;20110;-59
2022/05/21 01:07:50;;;;;;;30.25;16.48;;;9.90;99.90;;;;;;5029872;28;20033;-60
2022/05/21 01:10:20;;;;;;;28.58;16.75;;;10.10;99.90;;;;;;5029583;28;20057;-59
2022/05/21 01:12:50;;;;;;;25.95;16.00;;;10.00;99.90;;;;;;5027738;28;20495;-59
2022/05/21 01:15:20;;;;;;;34.00;19.27;;;10.20;99.90;;;;;;5028081;28;20037;-59
2022/05/21 01:17:46;;;;;;;32.88;18.25;;;10.20;99.90;;;;;;5028008;28;20076;-59
2022/05/21 01:20:18;;;;;;;28.40;18.25;;;10.30;99.90;;;;;;5028262;28;20041;-59
2022/05/21 01:22:45;;;;;;;31.67;19.75;;;10.30;99.90;;;;;;5029646;28;20041;-59
2022/05/21 01:25:12;;;;;;;30.33;20.00;;;10.40;99.90;;;;;;5027943;28;20049;-59
2022/05/21 01:27:39;;;;;;;29.63;19.35;;;10.50;99.90;;;;;;5028030;28;20419;-59
2022/05/21 01:30:08;;;;;;;36.67;22.20;;;10.40;99.90;;;;;;5029274;28;20591;-59
2022/05/21 01:32:34;;;;;;;31.27;21.55;;;10.50;99.90;;;;;;5029817;28;20360;-59
2022/05/21 01:35:00;;;;;;;38.13;23.60;;;10.50;99.90;;;;;;5027811;28;20175;-59
2022/05/21 01:37:26;;;;;;;41.53;25.27;;;10.60;99.90;;;;;;5028906;28;20049;-59
2022/05/21 01:39:52;;;;;;;47.15;29.75;;;10.60;99.90;;;;;;5027693;28;20045;-59
2022/05/21 01:42:18;;;;;;;41.33;27.90;;;10.60;99.90;;;;;;5027512;28;20471;-59
2022/05/21 01:44:46;;;;;;;44.75;30.02;;;10.70;99.90;;;;;;5027792;28;20179;-59
2022/05/21 01:47:14;;;;;;;53.60;31.45;;;10.70;99.90;;;;;;5029581;28;20275;-59
2022/05/21 01:49:42;;;;;;;51.97;32.75;;;10.80;99.90;;;;;;5029113;28;20049;-59
2022/05/21 01:52:09;;;;;;;46.88;32.60;;;10.80;99.90;;;;;;5029390;28;20045;-59
2022/05/21 01:54:35;;;;;;;50.85;35.03;;;10.90;99.90;;;;;;5027773;28;20084;-59
2022/05/21 01:57:04;;;;;;;51.17;33.20;;;10.90;99.90;;;;;;5027627;28;20112;-59
2022/05/21 01:59:29;;;;;;;51.10;36.28;;;10.90;99.90;;;;;;5027525;28;20065;-59
2022/05/21 02:01:56;;;;;;;49.75;33.63;;;10.90;99.90;;;;;;5028153;28;20045;-60
2022/05/21 02:04:22;;;;;;;49.22;35.92;;;11.10;99.90;;;;;;5027888;28;20045;-59
2022/05/21 02:06:48;;;;;;;52.85;34.00;;;11.20;99.90;;;;;;5029186;28;20053;-60
2022/05/21 02:09:14;;;;;;;49.97;35.50;;;11.20;99.90;;;;;;5027925;28;20363;-60
2022/05/21 02:11:40;;;;;;;47.25;36.17;;;11.30;99.90;;;;;;5010544;28;20053;-59
2022/05/21 02:14:08;;;;;;;51.30;35.15;;;11.30;99.90;;;;;;5061363;28;20103;-59
2022/05/21 02:16:34;;;;;;;47.70;34.03;;;11.30;99.90;;;;;;5030119;28;20487;-59
2022/05/21 02:19:05;;;;;;;50.50;35.70;;;11.40;99.90;;;;;;5031956;28;20459;-59
2022/05/21 02:21:34;;;;;;;51.50;36.47;;;11.40;99.90;;;;;;5065442;28;20047;-59
2022/05/21 02:23:59;;;;;;;48.47;34.90;;;11.50;99.90;;;;;;5033324;28;20399;-59
2022/05/21 02:26:25;;;;;;;46.20;35.10;;;11.60;99.90;;;;;;5031886;28;20061;-59
2022/05/21 02:28:51;;;;;;;52.30;37.53;;;11.60;99.90;;;;;;5032491;28;20103;-59
2022/05/21 02:31:17;;;;;;;47.47;35.88;;;11.60;99.90;;;;;;5033085;28;20045;-59
2022/05/21 02:33:43;;;;;;;50.28;36.85;;;11.60;99.90;;;;;;5015371;28;20037;-60
2022/05/21 02:36:10;;;;;;;57.08;40.33;;;11.70;99.90;;;;;;5031260;28;20080;-60
2022/05/21 02:41:21;;;;;;;53.20;38.30;;;11.70;99.90;;;;;;5030924;28;20478;-59
2022/05/21 02:43:47;;;;;;;57.25;38.30;;;11.80;99.90;;;;;;5032601;28;20067;-60
2022/05/21 02:46:14;;;;;;;57.70;40.53;;;11.80;99.90;;;;;;5064358;28;20126;-60
2022/05/21 02:48:41;;;;;;;67.07;46.35;;;11.80;99.90;;;;;;5031328;28;20092;-60
2022/05/21 02:51:09;;;;;;;71.75;49.45;;;11.80;99.90;;;;;;5030853;28;20041;-60
2022/05/21 02:53:36;;;;;;;76.07;49.80;;;11.80;99.90;;;;;;5032236;28;20131;-60
2022/05/21 02:56:09;;;;;;;69.30;49.20;;;11.80;99.90;;;;;;5030967;28;20043;-59
2022/05/21 02:58:36;;;;;;;83.40;52.92;;;11.80;99.90;;;;;;5032219;28;20057;-59
2022/05/21 03:01:03;;;;;;;78.75;51.72;;;11.70;99.90;;;;;;5030680;28;20107;-59
2022/05/21 03:03:29;;;;;;;65.47;47.30;;;11.80;99.90;;;;;;5031815;28;20079;-59
2022/05/21 03:05:55;;;;;;;69.38;49.65;;;11.90;99.90;;;;;;5047106;28;20041;-59
2022/05/21 03:11:04;;;;;;;75.57;49.65;;;11.90;99.90;;;;;;5030235;28;20128;-59
2022/05/21 03:13:32;;;;;;;61.58;43.97;;;12.00;99.90;;;;;;5030343;28;20128;-59
2022/05/21 03:15:58;;;;;;;66.70;45.50;;;12.00;99.90;;;;;;5031659;28;20049;-59
2022/05/21 03:18:24;;;;;;;71.85;48.13;;;12.00;99.90;;;;;;5030258;28;20072;-59
2022/05/21 03:20:51;;;;;;;69.22;44.58;;;12.00;99.90;;;;;;5030626;28;20052;-60
2022/05/21 03:23:16;;;;;;;70.22;46.03;;;12.10;99.90;;;;;;5031043;28;20063;-59
2022/05/21 03:25:43;;;;;;;74.72;45.38;;;12.10;99.90;;;;;;5030543;28;20053;-59
2022/05/21 03:28:17;;;;;;;73.70;46.20;;;12.10;99.90;;;;;;5029409;28;20120;-60
2022/05/21 03:30:43;;;;;;;77.85;49.33;;;12.10;99.90;;;;;;5063486;28;20049;-60
2022/05/21 03:33:09;;;;;;;59.53;42.63;;;12.10;99.90;;;;;;5030035;28;20052;-60
2022/05/21 03:35:35;;;;;;;53.42;38.13;;;12.10;99.90;;;;;;5030192;28;20045;-60
2022/05/21 03:38:01;;;;;;;53.95;36.45;;;12.10;99.90;;;;;;5031332;28;20056;-60
2022/05/21 03:40:29;;;;;;;52.53;35.05;;;12.20;99.90;;;;;;5030143;28;20061;-60
2022/05/21 03:42:55;;;;;;;41.80;29.02;;;12.30;99.90;;;;;;5029796;28;20045;-60
2022/05/21 03:45:22;;;;;;;59.50;35.38;;;12.20;99.90;;;;;;5013268;28;20045;-60
2022/05/21 03:47:47;;;;;;;59.22;34.83;;;12.30;99.90;;;;;;5030421;28;20048;-60
2022/05/21 03:50:18;;;;;;;52.72;32.10;;;12.20;99.90;;;;;;5030360;28;20400;-60
2022/05/21 03:52:43;;;;;;;47.42;30.13;;;12.30;99.90;;;;;;5029906;28;20053;-60
2022/05/21 03:55:10;;;;;;;45.17;25.60;;;12.40;99.90;;;;;;5029871;28;20392;-60
2022/05/21 03:57:36;;;;;;;52.95;27.30;;;12.40;99.90;;;;;;5013003;28;20424;-60
2022/05/21 04:00:05;;;;;;;46.90;24.83;;;12.40;99.90;;;;;;5029684;28;20045;-60
2022/05/21 04:02:32;;;;;;;42.70;22.08;;;12.40;99.90;;;;;;5029752;28;20042;-60
2022/05/21 04:04:59;;;;;;;41.38;21.65;;;12.50;99.90;;;;;;5029738;28;20340;-60
2022/05/21 04:07:25;;;;;;;29.58;18.98;;;12.60;99.90;;;;;;5030575;28;20833;-60
2022/05/21 04:09:51;;;;;;;37.65;18.70;;;12.60;99.90;;;;;;5031487;28;20037;-61
2022/05/21 04:12:17;;;;;;;33.00;15.63;;;12.60;99.90;;;;;;5029501;28;20088;-61
2022/05/21 04:14:43;;;;;;;34.63;14.00;;;12.60;99.90;;;;;;4997189;28;20484;-61
2022/05/21 04:17:13;;;;;;;28.90;13.45;;;12.70;99.90;;;;;;5030655;28;20051;-61
2022/05/21 04:19:40;;;;;;;25.95;11.02;;;12.70;99.90;;;;;;4997311;28;20066;-60
2022/05/21 04:22:06;;;;;;;27.15;9.30;;;12.80;99.90;;;;;;5029113;28;20049;-60
2022/05/21 04:24:32;;;;;;;29.67;10.20;;;12.80;99.90;;;;;;5012762;28;20045;-61
2022/05/21 04:26:58;;;;;;;22.27;7.55;;;12.90;99.90;;;;;;5012754;28;20080;-60
2022/05/21 04:29:24;;;;;;;23.70;6.72;;;12.90;99.90;;;;;;5062747;28;20132;-58
2022/05/21 04:31:50;;;;;;;23.08;7.28;;;13.00;99.90;;;;;;5029708;28;20041;-60
2022/05/21 04:34:16;;;;;;;24.95;7.10;;;12.90;99.90;;;;;;5013376;28;20380;-61
2022/05/21 04:36:42;;;;;;;25.38;6.65;;;12.90;99.90;;;;;;5029302;28;20381;-61
2022/05/21 04:39:08;;;;;;;23.90;7.05;;;13.00;99.90;;;;;;5045937;28;20055;-61
2022/05/21 04:41:33;;;;;;;22.23;5.97;;;13.10;99.90;;;;;;5012518;28;20038;-63
2022/05/21 04:43:59;;;;;;;21.48;5.75;;;13.00;99.90;;;;;;5030582;28;20045;-60
2022/05/21 04:46:25;;;;;;;27.45;5.40;;;13.00;99.90;;;;;;5029594;28;20155;-60
2022/05/21 04:48:51;;;;;;;22.83;5.97;;;13.00;99.90;;;;;;5062209;28;20361;-60
2022/05/21 04:51:18;;;;;;;21.30;4.93;;;13.10;99.90;;;;;;5028353;28;20045;-59
2022/05/21 04:53:44;;;;;;;24.38;5.18;;;13.00;99.90;;;;;;5029863;28;20041;-59
2022/05/21 04:56:10;;;;;;;17.02;3.75;;;13.00;99.90;;;;;;5012715;28;20446;-59
2022/05/21 04:58:36;;;;;;;24.95;4.65;;;13.10;99.90;;;;;;5029860;28;20129;-59
2022/05/21 05:01:03;;;;;;;20.55;4.60;;;13.00;99.90;;;;;;5028623;28;20056;-59
2022/05/21 05:03:28;;;;;;;19.85;3.70;;;13.00;99.90;;;;;;5028116;28;20045;-59
2022/05/21 05:05:55;;;;;;;20.02;3.50;;;13.10;99.90;;;;;;5028802;28;20041;-60
2022/05/21 05:08:22;;;;;;;19.92;4.03;;;13.20;99.90;;;;;;5028737;28;20041;-59
2022/05/21 05:10:48;;;;;;;17.45;3.40;;;13.10;99.90;;;;;;5029475;28;20045;-60
2022/05/21 05:13:15;;;;;;;12.52;2.72;;;13.20;99.90;;;;;;5028449;28;20400;-59
2022/05/21 05:15:46;;;;;;;17.08;3.03;;;13.00;99.90;;;;;;5029550;28;20034;-60
2022/05/21 05:18:18;;;;;;;17.67;3.00;;;13.10;99.90;;;;;;5028224;28;20072;-60
2022/05/21 05:20:45;;;;;;;16.05;2.75;;;13.20;99.90;;;;;;5061587;28;20038;-60
2022/05/21 05:23:11;;;;;;;12.07;2.25;;;13.10;99.90;;;;;;5028157;28;20090;-60
2022/05/21 05:25:37;;;;;;;15.07;2.75;;;13.20;99.90;;;;;;5044365;28;20441;-60
2022/05/21 05:28:05;;;;;;;11.80;2.55;;;13.30;99.90;;;;;;5011479;28;20051;-61
2022/05/21 05:30:32;;;;;;;13.93;2.75;;;13.30;99.90;;;;;;5029541;28;20407;-61
2022/05/21 05:32:58;;;;;;;15.18;2.60;;;13.50;99.90;;;;;;5028252;28;20045;-61
2022/05/21 05:35:24;;;;;;;13.90;2.30;;;13.50;99.90;;;;;;5044527;28;20483;-59
2022/05/21 05:37:50;;;;;;;13.50;2.40;;;13.40;99.90;;;;;;5028090;28;20476;-59
2022/05/21 05:40:18;;;;;;;12.23;2.22;;;13.30;99.90;;;;;;5028122;28;20391;-59
2022/05/21 05:42:44;;;;;;;14.73;2.42;;;13.30;99.90;;;;;;5027929;28;20033;-59
2022/05/21 05:45:12;;;;;;;17.52;2.95;;;13.30;99.90;;;;;;5011621;28;20546;-59
2022/05/21 05:47:38;;;;;;;11.80;2.78;;;13.30;99.90;;;;;;5029191;28;20096;-60
2022/05/21 05:50:04;;;;;;;12.32;2.35;;;13.40;99.90;;;;;;5027671;28;20053;-60
2022/05/21 05:52:30;;;;;;;13.77;2.15;;;13.50;99.90;;;;;;5027938;28;20435;-60
2022/05/21 05:54:56;;;;;;;12.52;2.08;;;13.60;99.90;;;;;;5027914;28;20103;-59
2022/05/21 05:57:23;;;;;;;11.70;2.10;;;13.70;99.90;;;;;;5027559;28;20439;-60
2022/05/21 05:59:50;;;;;;;10.50;1.77;;;13.60;99.90;;;;;;5027288;28;20057;-60
2022/05/21 06:05:08;;;;;;;11.52;2.60;;;13.90;99.90;;;;;;5029092;28;20483;-60
2022/05/21 06:07:39;;;;;;;12.45;2.17;;;14.10;99.90;;;;;;5061082;28;20120;-59
2022/05/21 06:10:06;;;;;;;12.25;2.05;;;14.10;99.90;;;;;;5060914;28;20060;-60
2022/05/21 06:12:32;;;;;;;14.00;2.75;;;14.10;99.90;;;;;;5028829;28;20056;-60
2022/05/21 06:14:59;;;;;;;14.20;2.50;;;14.20;99.90;;;;;;5061023;28;20053;-60
2022/05/21 06:17:25;;;;;;;12.80;2.35;;;14.20;99.90;;;;;;5060514;28;20056;-60
2022/05/21 06:19:52;;;;;;;10.05;1.48;;;14.30;99.90;;;;;;5027763;28;20124;-60
2022/05/21 06:22:18;;;;;;;13.90;2.33;;;14.50;99.90;;;;;;5028932;28;20080;-60
2022/05/21 06:24:44;;;;;;;13.93;2.53;;;14.40;99.90;;;;;;5027461;28;20077;-60
2022/05/21 06:27:10;;;;;;;14.30;2.30;;;14.50;99.90;;;;;;5027596;28;20507;-60
2022/05/21 06:29:36;;;;;;;18.40;2.33;;;14.30;99.90;;;;;;5060725;28;20053;-60
2022/05/21 06:32:07;;;;;;;13.10;1.92;;;14.30;99.90;;;;;;5028798;28;20049;-60
2022/05/21 06:34:35;;;;;;;15.18;2.08;;;14.30;99.90;;;;;;5010857;28;20037;-60
2022/05/21 06:37:06;;;;;;;12.02;2.10;;;14.40;99.90;;;;;;5043980;28;20117;-60
2022/05/21 06:39:32;;;;;;;13.73;2.38;;;14.50;99.90;;;;;;5043881;28;20052;-60
2022/05/21 06:41:59;;;;;;;16.55;2.42;;;14.50;99.90;;;;;;5027237;28;20038;-60
2022/05/21 06:44:25;;;;;;;14.70;2.35;;;14.40;99.90;;;;;;5027283;28;20042;-60
2022/05/21 06:46:52;;;;;;;10.82;1.85;;;14.40;99.90;;;;;;5060560;28;20136;-60
2022/05/21 06:49:18;;;;;;;10.52;1.92;;;14.30;99.90;;;;;;5028480;28;20456;-60
2022/05/21 06:51:44;;;;;;;12.80;1.73;;;14.50;99.90;;;;;;5044166;28;20069;-60
2022/05/21 06:54:10;;;;;;;11.40;2.20;;;14.80;99.90;;;;;;5027427;28;20400;-60
2022/05/21 06:56:38;;;;;;;15.18;2.63;;;15.20;99.90;;;;;;5026899;28;20049;-60
2022/05/21 06:59:04;;;;;;;12.23;1.92;;;15.00;99.90;;;;;;5027590;28;20415;-60
2022/05/21 07:01:29;;;;;;;14.82;1.60;;;15.30;99.90;;;;;;5028191;28;20053;-60
2022/05/21 07:03:56;;;;;;;10.32;2.10;;;15.40;99.90;;;;;;5063106;28;20161;-60
2022/05/21 07:09:06;;;;;;;10.80;1.83;;;15.20;99.90;;;;;;5030715;28;20578;-61
2022/05/21 07:11:32;;;;;;;13.82;1.88;;;15.20;99.90;;;;;;5013778;28;20048;-61
2022/05/21 07:13:58;;;;;;;15.10;2.17;;;15.10;99.90;;;;;;5032280;28;20483;-60
2022/05/21 07:16:24;;;;;;;12.35;1.90;;;15.10;99.90;;;;;;5063373;28;20125;-60
2022/05/21 07:18:50;;;;;;;14.25;1.83;;;15.10;99.90;;;;;;5032117;28;20120;-61
2022/05/21 07:21:18;;;;;;;10.80;1.83;;;15.10;99.90;;;;;;5030153;28;20049;-60
2022/05/21 07:23:44;;;;;;;11.13;1.77;;;15.30;99.90;;;;;;5030339;28;20092;-60
2022/05/21 07:26:11;;;;;;;14.18;2.20;;;15.60;99.90;;;;;;5030442;28;20110;-60
2022/05/21 07:28:37;;;;;;;12.93;2.53;;;15.70;99.90;;;;;;5063646;28;20045;-61
2022/05/21 07:31:03;;;;;;;13.40;1.85;;;15.70;99.90;;;;;;5030182;28;20053;-61
2022/05/21 07:33:29;;;;;;;14.40;1.73;;;15.50;99.90;;;;;;5014037;28;20088;-60
2022/05/21 07:35:54;;;;;;;16.10;2.22;;;15.30;99.90;;;;;;5063376;28;20057;-61
2022/05/21 07:38:20;;;;;;;11.52;1.98;;;15.20;99.90;;;;;;5029874;28;20129;-61
2022/05/21 07:40:47;;;;;;;14.95;1.95;;;15.00;99.90;;;;;;5013444;28;20049;-60
2022/05/21 07:43:15;;;;;;;11.90;2.15;;;15.20;99.90;;;;;;5031290;28;20048;-59
2022/05/21 07:45:42;;;;;;;13.32;1.92;;;15.50;99.90;;;;;;5031066;28;20038;-60
2022/05/21 07:48:13;;;;;;;10.57;2.00;;;15.80;99.90;;;;;;5063173;28;20053;-60
2022/05/21 07:50:40;;;;;;;11.13;1.52;;;16.00;99.90;;;;;;5046377;28;20047;-60
2022/05/21 07:53:14;;;;;;;10.02;1.40;;;16.20;99.90;;;;;;5029608;28;20037;-60
2022/05/21 07:55:43;;;;;;;12.10;1.60;;;16.00;99.90;;;;;;5030917;28;20034;-60
2022/05/21 07:58:10;;;;;;;15.40;1.67;;;16.40;99.90;;;;;;5029492;28;20052;-60
2022/05/21 08:00:36;;;;;;;13.07;1.80;;;16.50;99.90;;;;;;5046042;28;20095;-60
2022/05/21 08:03:02;;;;;;;7.00;0.80;;;16.70;99.90;;;;;;5031007;28;20068;-59
2022/05/21 08:05:28;;;;;;;10.85;1.30;;;16.60;99.90;;;;;;5029572;28;20423;-59
2022/05/21 08:07:54;;;;;;;13.10;1.45;;;16.50;99.90;;;;;;5030480;28;20098;-60
2022/05/21 08:10:23;;;;;;;9.18;1.10;;;16.30;99.90;;;;;;5046029;28;20041;-59
2022/05/21 08:12:50;;;;;;;9.13;0.85;;;16.40;99.90;;;;;;5030649;28;20113;-59
2022/05/21 08:15:18;;;;;;;11.70;1.50;;;16.20;99.90;;;;;;5030226;28;20049;-59
2022/05/21 08:17:43;;;;;;;12.32;1.10;;;16.10;99.90;;;;;;5062398;28;20068;-60
2022/05/21 08:20:11;;;;;;;11.38;1.20;;;16.30;99.90;;;;;;5029270;28;20110;-60
2022/05/21 08:28:08;;;;;;;9.70;1.33;;;16.50;99.90;;;;;;5028906;28;20057;-60
2022/05/21 08:30:34;;;;;;;8.20;1.02;;;17.00;99.90;;;;;;5029030;28;20041;-60
2022/05/21 08:33:04;;;;;;;15.77;1.60;;;17.20;99.90;;;;;;5028762;28;20427;-60
2022/05/21 08:35:30;;;;;;;11.70;1.45;;;16.90;99.90;;;;;;5028765;28;20124;-60
2022/05/21 08:37:56;;;;;;;12.48;1.80;;;16.90;99.90;;;;;;5028765;28;20053;-60
2022/05/21 08:40:23;;;;;;;8.70;1.20;;;16.70;99.90;;;;;;5012400;28;20046;-60
2022/05/21 08:43:00;;;;;;;12.52;1.67;;;16.60;99.90;;;;;;5030116;28;20064;-60
2022/05/21 08:46:00;;;;;;;11.13;1.48;;;16.50;99.90;;;;;;5012767;28;20046;-60
2022/05/21 08:48:31;;;;;;;12.18;1.10;;;16.30;99.90;;;;;;5012177;28;20088;-60
2022/05/21 08:50:58;;;;;;;9.35;1.20;;;16.50;99.90;;;;;;5031264;28;20046;-59
2022/05/21 08:53:28;;;;;;;11.45;1.20;;;16.50;99.90;;;;;;5028211;28;20037;-59
2022/05/21 08:55:56;;;;;;;11.80;1.42;;;17.10;99.90;;;;;;5029902;28;20073;-60
2022/05/21 08:58:41;;;;;;;8.82;1.20;;;17.20;99.90;;;;;;5028528;28;20495;-62
2022/05/21 09:01:09;;;;;;;10.27;1.30;;;17.50;99.90;;;;;;5028494;28;20124;-60
2022/05/21 09:03:36;;;;;;;10.02;1.48;;;16.80;99.90;;;;;;5028324;28;20056;-60
2022/05/21 09:06:19;;;;;;;13.55;1.85;;;16.70;99.90;;;;;;5030008;28;20046;-60
2022/05/21 09:09:27;;;;;;;11.23;1.30;;;16.00;99.90;;;;;;5028506;28;20124;-60
2022/05/21 09:12:16;;;;;;;11.60;1.60;;;15.90;99.90;;;;;;4997331;28;20064;-60
2022/05/21 09:14:44;;;;;;;8.98;1.40;;;15.80;99.90;;;;;;5028421;28;20046;-60
2022/05/21 09:17:13;;;;;;;11.57;1.33;;;15.70;99.90;;;;;;5044882;28;20451;-60
2022/05/21 09:19:46;;;;;;;13.00;1.25;;;15.60;99.90;;;;;;5029622;28;20045;-60
2022/05/21 09:22:15;;;;;;;;;;;16.00;99.90;;;;;;5030665;28;20044;-60
2022/05/21 09:24:45;;;;;;;12.23;1.65;;;15.90;99.90;;;;;;5045717;28;20426;-61
2022/05/21 09:27:27;;;;;;;8.95;1.40;;;16.00;99.90;;;;;;5028306;28;20520;-59
2022/05/21 09:30:12;;;;;;;16.30;1.92;;;16.30;99.90;;;;;;5012110;28;20051;-60
2022/05/21 09:32:39;;;;;;;15.60;2.00;;;16.80;99.90;;;;;;5061171;28;20053;-59
2022/05/21 09:35:13;;;;;;;12.15;1.58;;;17.10;99.90;;;;;;5029854;28;20084;-59
2022/05/21 09:37:40;;;;;;;12.30;1.65;;;17.70;99.90;;;;;;5027728;28;20124;-60
2022/05/21 09:40:36;;;;;;;10.55;1.58;;;17.20;99.90;;;;;;5011489;28;20049;-60
2022/05/21 09:46:18;;;;;;;10.60;1.20;;;17.10;99.90;;;;;;5027919;28;20519;-60
2022/05/21 09:48:46;;;;;;;12.80;1.45;;;17.60;99.90;;;;;;5028187;28;20041;-60
2022/05/21 09:51:32;;;;;;;9.73;1.45;;;18.20;99.90;;;;;;5029161;28;20519;-61
2022/05/21 09:53:59;;;;;;;8.98;1.20;;;18.10;99.90;;;;;;5011473;28;20045;-60
2022/05/21 09:56:31;;;;;;;10.65;1.23;;;18.20;99.90;;;;;;5027757;28;20061;-60
2022/05/21 09:59:17;;;;;;;9.00;0.93;;;18.40;99.90;;;;;;5027586;28;20088;-60
2022/05/21 10:01:46;;;;;;;8.45;1.10;;;18.40;99.90;;;;;;5027564;28;20062;-60
2022/05/21 10:04:30;;;;;;;9.63;1.23;;;19.00;99.90;;;;;;5060978;28;20538;-60
2022/05/21 10:13:12;;;;;;;11.23;1.33;;;18.10;99.90;;;;;;5029140;28;20054;-61
2022/05/21 10:15:46;;;;;;;7.00;1.00;;;18.50;99.90;;;;;;5060531;28;20076;-61
2022/05/21 10:18:28;;;;;;;10.23;1.55;;;18.60;99.90;;;;;;5028494;28;20050;-60
2022/05/21 10:20:59;;;;;;;8.82;1.17;;;18.70;99.90;;;;;;5028793;28;20037;-60
2022/05/21 10:23:51;;;;;;;10.48;1.10;;;18.90;99.90;;;;;;5011879;28;20057;-60
2022/05/21 10:26:27;;;;;;;10.57;1.30;;;19.60;99.90;;;;;;5045147;28;20041;-60
2022/05/21 10:29:41;;;;;;;7.57;1.02;;;19.00;99.90;;;;;;5044877;28;20120;-60
2022/05/21 10:32:19;;;;;;;;;;;18.90;99.90;;;;;;5020599;28;20080;-60
2022/05/21 10:35:03;;;;;;;11.98;1.52;;;18.20;99.90;;;;;;5027898;28;19942;-60
2022/05/21 10:38:10;;;;;;;8.13;1.35;;;17.70;99.90;;;;;;5046771;28;20404;-60
2022/05/21 10:40:58;;;;;;;9.40;1.30;;;17.70;99.90;;;;;;5022933;28;20401;-60
2022/05/21 10:43:51;;;;;;;8.82;1.20;;;17.50;99.90;;;;;;5015561;28;20053;-60
2022/05/21 10:46:29;;;;;;;12.60;1.48;;;17.00;99.90;;;;;;5031868;28;20037;-60
2022/05/21 10:49:37;;;;;;;10.30;1.77;;;16.80;99.90;;;;;;5031685;28;20046;-60
2022/05/21 10:52:15;;;;;;;10.32;1.63;;;17.10;99.90;;;;;;5032028;28;20431;-60
2022/05/21 10:54:58;;;;;;;11.55;1.75;;;17.50;99.90;;;;;;5031978;28;20041;-60
2022/05/21 10:57:46;;;;;;;11.57;2.03;;;17.10;99.90;;;;;;5032873;28;20132;-60
2022/05/21 11:00:39;;;;;;;16.27;2.40;;;17.30;99.90;;;;;;5032899;28;20057;-59
2022/05/21 11:03:28;;;;;;;9.23;1.47;;;17.80;99.90;;;;;;5015476;28;20045;-59
2022/05/21 11:06:03;;;;;;;10.48;1.10;;;17.70;99.90;;;;;;5033325;28;20132;-59
2022/05/21 11:08:35;;;;;;;9.80;1.52;;;17.40;99.90;;;;;;5064580;28;20056;-59
2022/05/21 11:11:04;;;;;;;11.02;1.58;;;17.50;99.90;;;;;;5031100;28;20050;-61
2022/05/21 11:14:07;;;;;;;9.40;1.80;;;18.10;99.90;;;;;;5031533;28;20053;-59
2022/05/21 11:16:46;;;;;;;9.13;1.05;;;18.00;99.90;;;;;;5064751;28;20052;-59
2022/05/21 11:19:38;;;;;;;11.15;1.60;;;17.60;99.90;;;;;;5031377;28;20520;-59
2022/05/21 11:22:16;;;;;;;5.13;0.60;;;18.10;99.90;;;;;;5032076;28;20057;-59
2022/05/21 11:25:09;;;;;;;5.05;0.98;;;18.50;99.90;;;;;;5032577;28;20487;-59
2022/05/21 11:27:37;;;;;;;;;;;18.70;99.90;;;;;;5062342;28;20068;-59
2022/05/21 11:30:14;;;;;;;8.75;1.15;;;18.90;99.90;;;;;;5064175;28;19928;-59
2022/05/21 11:38:38;;;;;;;10.32;1.20;;;18.20;99.90;;;;;;5030732;28;20400;-59
2022/05/21 11:43:55;;;;;;;7.38;0.95;;;18.60;99.90;;;;;;5032129;28;20132;-59
2022/05/21 11:46:36;;;;;;;7.38;0.80;;;19.10;99.90;;;;;;5030631;28;20056;-59
2022/05/21 11:49:28;;;;;;;6.05;0.82;;;19.50;99.90;;;;;;5063485;28;20124;-59
2022/05/21 11:52:00;;;;;;;6.72;0.80;;;19.40;99.90;;;;;;5014011;28;20049;-59
2022/05/21 11:54:45;;;;;;;8.13;1.00;;;19.20;99.90;;;;;;5032029;28;20041;-60
2022/05/21 11:57:11;;;;;;;10.48;1.30;;;19.10;99.90;;;;;;5031700;28;20121;-60
2022/05/21 11:59:51;;;;;;;9.68;1.67;;;18.80;99.90;;;;;;5063164;28;20050;-60
2022/05/21 12:02:31;;;;;;;10.55;1.80;;;18.70;99.90;;;;;;5031901;28;20045;-60
2022/05/21 12:05:11;;;;;;;7.15;0.85;;;19.40;99.90;;;;;;5030031;28;20041;-60
2022/05/21 12:07:48;;;;;;;7.70;0.80;;;20.10;99.90;;;;;;5030665;28;20043;-59
2022/05/21 12:10:47;;;;;;;12.35;1.25;;;20.20;99.90;;;;;;5029502;28;20120;-59
2022/05/21 12:13:21;;;;;;;8.70;1.42;;;20.10;99.90;;;;;;5062333;28;20515;-59
2022/05/21 12:15:53;;;;;;;9.70;1.67;;;19.80;99.90;;;;;;5029013;28;20045;-59
2022/05/21 12:18:25;;;;;;;10.23;1.38;;;19.50;99.90;;;;;;5030397;28;20137;-59
2022/05/21 12:20:52;;;;;;;9.57;1.77;;;19.60;99.90;;;;;;5030547;28;20056;-59
2022/05/21 12:23:31;;;;;;;12.20;1.60;;;19.80;99.90;;;;;;5028900;28;20083;-58
2022/05/21 12:26:03;;;;;;;7.50;1.17;;;19.10;99.90;;;;;;5062209;28;20475;-59
2022/05/21 12:28:49;;;;;;;8.75;1.40;;;19.70;99.90;;;;;;5028986;28;20431;-59
2022/05/21 12:31:21;;;;;;;12.43;1.92;;;19.90;99.90;;;;;;5012646;28;20549;-59
2022/05/21 12:34:12;;;;;;;7.43;0.98;;;20.10;99.90;;;;;;5030477;28;20045;-59
2022/05/21 12:36:57;;;;;;;9.77;1.95;;;19.50;99.90;;;;;;5055055;28;20132;-59
2022/05/21 12:39:31;;;;;;;5.22;0.90;;;19.40;99.90;;;;;;5030070;28;20049;-59
2022/05/21 12:42:04;;;;;;;7.97;1.52;;;20.00;99.90;;;;;;5029976;28;20082;-59
2022/05/21 12:44:43;;;;;;;8.77;1.27;;;19.30;99.90;;;;;;5028596;28;20099;-59
2022/05/21 12:47:12;;;;;;;8.07;0.85;;;19.20;99.90;;;;;;5029869;28;20035;-59
2022/05/21 12:49:47;;;;;;;8.27;0.98;;;19.40;99.90;;;;;;5061675;28;20041;-59
2022/05/21 12:52:24;;;;;;;11.95;1.42;;;19.90;99.90;;;;;;5028553;28;20112;-59
2022/05/21 12:55:10;;;;;;;11.13;1.30;;;19.90;99.90;;;;;;5028601;28;20102;-59
2022/05/21 12:57:36;;;;;;;8.55;1.27;;;19.20;99.90;;;;;;5027779;28;20052;-59
2022/05/21 13:00:05;;;;;;;7.93;0.88;;;19.50;99.90;;;;;;5027495;28;20049;-59
2022/05/21 13:02:43;;;;;;;8.07;1.20;;;19.50;99.90;;;;;;5045143;28;20079;-59
2022/05/21 13:05:16;;;;;;;8.10;0.82;;;19.40;99.90;;;;;;5030139;28;20043;-59
2022/05/21 13:07:43;;;;;;;9.02;1.63;;;19.60;99.90;;;;;;5028242;28;20057;-59
2022/05/21 13:10:27;;;;;;;6.22;0.75;;;19.10;99.90;;;;;;5028602;28;20096;-59
2022/05/21 13:12:59;;;;;;;7.13;1.02;;;19.40;99.90;;;;;;5029233;28;20037;-59
2022/05/21 13:15:55;;;;;;;8.45;0.80;;;19.70;99.90;;;;;;5029152;28;20064;-59
2022/05/21 13:18:42;;;;;;;6.63;0.77;;;19.40;99.90;;;;;;5059834;28;20257;-59
2022/05/21 13:21:19;;;;;;;7.82;1.02;;;19.20;99.90;;;;;;5029716;28;20192;-59
2022/05/21 13:24:09;;;;;;;9.48;1.48;;;19.50;99.90;;;;;;5044671;28;20059;-59
2022/05/21 13:26:37;;;;;;;6.15;0.88;;;19.60;99.90;;;;;;5029202;28;20057;-59
2022/05/21 13:29:21;;;;;;;8.27;1.23;;;19.90;99.90;;;;;;5028019;28;20095;-59
2022/05/21 13:31:51;;;;;;;7.10;0.98;;;20.40;99.90;;;;;;5029200;28;20056;-59
2022/05/21 13:34:20;;;;;;;5.90;0.90;;;20.50;99.90;;;;;;5027999;28;20087;-59